Aviation Digital Data Service (ADDS)

Output produced by METARs form (1928 UTC 18 June 2019)
found at http://www.aviationweather.gov/metar/data/
 
METAR text: GMMZ 181900Z 15006KT CAVOK 36/M06 Q1015 NOSIG
Conditions at: GMMZ (OUARZAZATE , MA) observed 1900 UTC 18 June 2019
Temperature: 36.0°C (97°F)
Dewpoint: -6.0°C (21°F) [RH =  7%]
Pressure (altimeter): 29.97 inches Hg (1015.0 mb)
Winds: from the SSE (150 degrees) at 7 MPH (6 knots; 3.1 m/s)
Visibility: 6 or more miles (10+ km)
Ceiling: ceiling and visibility are OK
Clouds: unknown
Weather: no significant weather observed at this time

METAR text: GMMZ 181800Z 16007KT CAVOK 37/M07 Q1014 NOSIG
Conditions at: GMMZ (OUARZAZATE , MA) observed 1800 UTC 18 June 2019
Temperature: 37.0°C (99°F)
Dewpoint: -7.0°C (19°F) [RH =  6%]
Pressure (altimeter): 29.94 inches Hg (1014.0 mb)
Winds: from the SSE (160 degrees) at 8 MPH (7 knots; 3.6 m/s)
Visibility: 6 or more miles (10+ km)
Ceiling: ceiling and visibility are OK
Clouds: unknown
Weather: no significant weather observed at this time

METAR text: GMMZ 181700Z 22006KT 140V250 CAVOK 38/M08 Q1014 NOSIG
Conditions at: GMMZ (OUARZAZATE , MA) observed 1700 UTC 18 June 2019
Temperature: 38.0°C (100°F)
Dewpoint: -8.0°C (18°F) [RH =  5%]
Pressure (altimeter): 29.94 inches Hg (1014.0 mb)
Winds: from the SW (220 degrees) at 7 MPH (6 knots; 3.1 m/s)
Visibility: 6 or more miles (10+ km)
Ceiling: ceiling and visibility are OK
Clouds: unknown
Weather: no significant weather observed at this time

METAR text: GMMZ 181600Z 14005KT CAVOK 38/M08 Q1015 NOSIG
Conditions at: GMMZ (OUARZAZATE , MA) observed 1600 UTC 18 June 2019
Temperature: 38.0°C (100°F)
Dewpoint: -8.0°C (18°F) [RH =  5%]
Pressure (altimeter): 29.97 inches Hg (1015.0 mb)
Winds: from the SE (140 degrees) at 6 MPH (5 knots; 2.6 m/s)
Visibility: 6 or more miles (10+ km)
Ceiling: ceiling and visibility are OK
Clouds: unknown
Weather: no significant weather observed at this time

METAR text: GMMZ 181500Z 10005KT CAVOK 37/M07 Q1015 RMK NOSIG
Conditions at: GMMZ (OUARZAZATE , MA) observed 1500 UTC 18 June 2019
Temperature: 37.0°C (99°F)
Dewpoint: -7.0°C (19°F) [RH =  6%]
Pressure (altimeter): 29.97 inches Hg (1015.0 mb)
Winds: from the E (100 degrees) at 6 MPH (5 knots; 2.6 m/s)
Visibility: 6 or more miles (10+ km)
Ceiling: ceiling and visibility are OK
Clouds: unknown
Weather: no significant weather observed at this time

METAR text: GMMZ 181400Z 06005KT 320V120 8000 NSC 36/M05 Q1016 NOSIG
Conditions at: GMMZ (OUARZAZATE , MA) observed 1400 UTC 18 June 2019
Temperature: 36.0°C (97°F)
Dewpoint: -5.0°C (23°F) [RH =  7%]
Pressure (altimeter): 30.00 inches Hg (1016.0 mb)
Winds: from the ENE (60 degrees) at 6 MPH (5 knots; 2.6 m/s)
Visibility: 5 miles ( 8 km)
Ceiling: at least 12,000 feet AGL
Clouds: sky clear below 12,000 feet AGL
Weather: no significant weather observed at this time

METAR text: GMMZ 181300Z 09009KT 050V160 CAVOK 36/M03 Q1016 NOSIG
Conditions at: GMMZ (OUARZAZATE , MA) observed 1300 UTC 18 June 2019
Temperature: 36.0°C (97°F)
Dewpoint: -3.0°C (27°F) [RH =  8%]
Pressure (altimeter): 30.00 inches Hg (1016.0 mb)
Winds: from the E (90 degrees) at 10 MPH (9 knots; 4.6 m/s)
Visibility: 6 or more miles (10+ km)
Ceiling: ceiling and visibility are OK
Clouds: unknown
Weather: no significant weather observed at this time

METAR text: GMMZ 181200Z 04005KT 350V130 CAVOK 34/M02 Q1017 NOSIG
Conditions at: GMMZ (OUARZAZATE , MA) observed 1200 UTC 18 June 2019
Temperature: 34.0°C (93°F)
Dewpoint: -2.0°C (28°F) [RH = 10%]
Pressure (altimeter): 30.03 inches Hg (1017.0 mb)
Winds: from the NE (40 degrees) at 6 MPH (5 knots; 2.6 m/s)
Visibility: 6 or more miles (10+ km)
Ceiling: ceiling and visibility are OK
Clouds: unknown
Weather: no significant weather observed at this time

METAR text: GMMZ 181100Z 02003KT CAVOK 33/M01 Q1018 NOSIG
Conditions at: GMMZ (OUARZAZATE , MA) observed 1100 UTC 18 June 2019
Temperature: 33.0°C (91°F)
Dewpoint: -1.0°C (30°F) [RH = 11%]
Pressure (altimeter): 30.06 inches Hg (1018.0 mb)
Winds: from the NNE (20 degrees) at 3 MPH (3 knots; 1.5 m/s)
Visibility: 6 or more miles (10+ km)
Ceiling: ceiling and visibility are OK
Clouds: unknown
Weather: no significant weather observed at this time

METAR text: GMMZ 181000Z VRB02KT CAVOK 31/01 Q1018 NOSIG
Conditions at: GMMZ (OUARZAZATE , MA) observed 1000 UTC 18 June 2019
Temperature: 31.0°C (88°F)
Dewpoint: 1.0°C (34°F) [RH = 15%]
Pressure (altimeter): 30.06 inches Hg (1018.0 mb)
Winds: variable direction winds at 2 MPH (2 knots; 1.0 m/s)
Visibility: 6 or more miles (10+ km)
Ceiling: ceiling and visibility are OK
Clouds: unknown
Weather: no significant weather observed at this time

METAR text: GMMZ 180900Z VRB02KT CAVOK 28/02 28/02 Q1018 NOSIG
Conditions at: GMMZ (OUARZAZATE , MA) observed 0900 UTC 18 June 2019
Temperature: 28.0°C (82°F)
Dewpoint: 2.0°C (36°F) [RH = 19%]
Pressure (altimeter): 30.06 inches Hg (1018.0 mb)
Winds: variable direction winds at 2 MPH (2 knots; 1.0 m/s)
Visibility: 6 or more miles (10+ km)
Ceiling: ceiling and visibility are OK
Clouds: unknown
Weather: no significant weather observed at this time

METAR text: GMMZ 180800Z VRB01KT CAVOK 26/02 Q1018 NOSIG
Conditions at: GMMZ (OUARZAZATE , MA) observed 0800 UTC 18 June 2019
Temperature: 26.0°C (79°F)
Dewpoint: 2.0°C (36°F) [RH = 21%]
Pressure (altimeter): 30.06 inches Hg (1018.0 mb)
Winds: variable direction winds at 1 MPH (1 knots; 0.5 m/s)
Visibility: 6 or more miles (10+ km)
Ceiling: ceiling and visibility are OK
Clouds: unknown
Weather: no significant weather observed at this time

METAR text: GMMZ 180700Z 29003KT CAVOK 24/02 Q1018 NOSIG
Conditions at: GMMZ (OUARZAZATE , MA) observed 0700 UTC 18 June 2019
Temperature: 24.0°C (75°F)
Dewpoint: 2.0°C (36°F) [RH = 24%]
Pressure (altimeter): 30.06 inches Hg (1018.0 mb)
Winds: from the WNW (290 degrees) at 3 MPH (3 knots; 1.5 m/s)
Visibility: 6 or more miles (10+ km)
Ceiling: ceiling and visibility are OK
Clouds: unknown
Weather: no significant weather observed at this time

METAR text: GMMZ 180600Z 28004KT CAVOK 21/02 Q1017 NOSIG
Conditions at: GMMZ (OUARZAZATE , MA) observed 0600 UTC 18 June 2019
Temperature: 21.0°C (70°F)
Dewpoint: 2.0°C (36°F) [RH = 28%]
Pressure (altimeter): 30.03 inches Hg (1017.0 mb)
Winds: from the W (280 degrees) at 5 MPH (4 knots; 2.1 m/s)
Visibility: 6 or more miles (10+ km)
Ceiling: ceiling and visibility are OK
Clouds: unknown
Weather: no significant weather observed at this time

METAR text: GMMZ 180500Z 28005KT CAVOK 22/02 Q1016 NOSIG
Conditions at: GMMZ (OUARZAZATE , MA) observed 0500 UTC 18 June 2019
Temperature: 22.0°C (72°F)
Dewpoint: 2.0°C (36°F) [RH = 27%]
Pressure (altimeter): 30.00 inches Hg (1016.0 mb)
Winds: from the W (280 degrees) at 6 MPH (5 knots; 2.6 m/s)
Visibility: 6 or more miles (10+ km)
Ceiling: ceiling and visibility are OK
Clouds: unknown
Weather: no significant weather observed at this time

METAR text: GMMZ 180400Z 30004KT CAVOK 22/02 Q1016 NOSIG
Conditions at: GMMZ (OUARZAZATE , MA) observed 0400 UTC 18 June 2019
Temperature: 22.0°C (72°F)
Dewpoint: 2.0°C (36°F) [RH = 27%]
Pressure (altimeter): 30.00 inches Hg (1016.0 mb)
Winds: from the WNW (300 degrees) at 5 MPH (4 knots; 2.1 m/s)
Visibility: 6 or more miles (10+ km)
Ceiling: ceiling and visibility are OK
Clouds: unknown
Weather: no significant weather observed at this time

METAR text: GMMZ 180300Z VRB02KT CAVOK 25/02 Q1016 NOSIG
Conditions at: GMMZ (OUARZAZATE , MA) observed 0300 UTC 18 June 2019
Temperature: 25.0°C (77°F)
Dewpoint: 2.0°C (36°F) [RH = 22%]
Pressure (altimeter): 30.00 inches Hg (1016.0 mb)
Winds: variable direction winds at 2 MPH (2 knots; 1.0 m/s)
Visibility: 6 or more miles (10+ km)
Ceiling: ceiling and visibility are OK
Clouds: unknown
Weather: no significant weather observed at this time

METAR text: GMMZ 180200Z 26003KT CAVOK 24/02 Q1016 NOSIG
Conditions at: GMMZ (OUARZAZATE , MA) observed 0200 UTC 18 June 2019
Temperature: 24.0°C (75°F)
Dewpoint: 2.0°C (36°F) [RH = 24%]
Pressure (altimeter): 30.00 inches Hg (1016.0 mb)
Winds: from the W (260 degrees) at 3 MPH (3 knots; 1.5 m/s)
Visibility: 6 or more miles (10+ km)
Ceiling: ceiling and visibility are OK
Clouds: unknown
Weather: no significant weather observed at this time

METAR text: GMMZ 180100Z 28004KT CAVOK 25/03 Q1017 NOSIG
Conditions at: GMMZ (OUARZAZATE , MA) observed 0100 UTC 18 June 2019
Temperature: 25.0°C (77°F)
Dewpoint: 3.0°C (37°F) [RH = 24%]
Pressure (altimeter): 30.03 inches Hg (1017.0 mb)
Winds: from the W (280 degrees) at 5 MPH (4 knots; 2.1 m/s)
Visibility: 6 or more miles (10+ km)
Ceiling: ceiling and visibility are OK
Clouds: unknown
Weather: no significant weather observed at this time

METAR text: GMMZ 180000Z 26005KT CAVOK 27/02 Q1017 NOSIG
Conditions at: GMMZ (OUARZAZATE , MA) observed 0000 UTC 18 June 2019
Temperature: 27.0°C (81°F)
Dewpoint: 2.0°C (36°F) [RH = 20%]
Pressure (altimeter): 30.03 inches Hg (1017.0 mb)
Winds: from the W (260 degrees) at 6 MPH (5 knots; 2.6 m/s)
Visibility: 6 or more miles (10+ km)
Ceiling: ceiling and visibility are OK
Clouds: unknown
Weather: no significant weather observed at this time

METAR text: GMMZ 172300Z 25005KT CAVOK 29/02 Q1017 NOSIG
Conditions at: GMMZ (OUARZAZATE , MA) observed 2300 UTC 17 June 2019
Temperature: 29.0°C (84°F)
Dewpoint: 2.0°C (36°F) [RH = 18%]
Pressure (altimeter): 30.03 inches Hg (1017.0 mb)
Winds: from the WSW (250 degrees) at 6 MPH (5 knots; 2.6 m/s)
Visibility: 6 or more miles (10+ km)
Ceiling: ceiling and visibility are OK
Clouds: unknown
Weather: no significant weather observed at this time

METAR text: GMMZ 172200Z 28005KT CAVOK 30/02 Q1017 NOSIG
Conditions at: GMMZ (OUARZAZATE , MA) observed 2200 UTC 17 June 2019
Temperature: 30.0°C (86°F)
Dewpoint: 2.0°C (36°F) [RH = 17%]
Pressure (altimeter): 30.03 inches Hg (1017.0 mb)
Winds: from the W (280 degrees) at 6 MPH (5 knots; 2.6 m/s)
Visibility: 6 or more miles (10+ km)
Ceiling: ceiling and visibility are OK
Clouds: unknown
Weather: no significant weather observed at this time

METAR text: GMMZ 172100Z 21007KT CAVOK 32/02 Q1016 NOSIG
Conditions at: GMMZ (OUARZAZATE , MA) observed 2100 UTC 17 June 2019
Temperature: 32.0°C (90°F)
Dewpoint: 2.0°C (36°F) [RH = 15%]
Pressure (altimeter): 30.00 inches Hg (1016.0 mb)
Winds: from the SSW (210 degrees) at 8 MPH (7 knots; 3.6 m/s)
Visibility: 6 or more miles (10+ km)
Ceiling: ceiling and visibility are OK
Clouds: unknown
Weather: no significant weather observed at this time

METAR text: GMMZ 172000Z 16007KT CAVOK 33/M03 Q1015 NOSIG
Conditions at: GMMZ (OUARZAZATE , MA) observed 2000 UTC 17 June 2019
Temperature: 33.0°C (91°F)
Dewpoint: -3.0°C (27°F) [RH = 10%]
Pressure (altimeter): 29.97 inches Hg (1015.0 mb)
Winds: from the SSE (160 degrees) at 8 MPH (7 knots; 3.6 m/s)
Visibility: 6 or more miles (10+ km)
Ceiling: ceiling and visibility are OK
Clouds: unknown
Weather: no significant weather observed at this time

METAR text: GMMZ 171900Z 15007KT CAVOK 35/M04 Q1015 NOSIG
Conditions at: GMMZ (OUARZAZATE , MA) observed 1900 UTC 17 June 2019
Temperature: 35.0°C (95°F)
Dewpoint: -4.0°C (25°F) [RH =  8%]
Pressure (altimeter): 29.97 inches Hg (1015.0 mb)
Winds: from the SSE (150 degrees) at 8 MPH (7 knots; 3.6 m/s)
Visibility: 6 or more miles (10+ km)
Ceiling: ceiling and visibility are OK
Clouds: unknown
Weather: no significant weather observed at this time

METAR text: GMMZ 171800Z 10006KT CAVOK 36/M04 Q1014 NOSIG
Conditions at: GMMZ (OUARZAZATE , MA) observed 1800 UTC 17 June 2019
Temperature: 36.0°C (97°F)
Dewpoint: -4.0°C (25°F) [RH =  8%]
Pressure (altimeter): 29.94 inches Hg (1014.0 mb)
Winds: from the E (100 degrees) at 7 MPH (6 knots; 3.1 m/s)
Visibility: 6 or more miles (10+ km)
Ceiling: ceiling and visibility are OK
Clouds: unknown
Weather: no significant weather observed at this time

METAR text: GMMZ 171700Z 07003KT CAVOK 36/M04 Q1014 NOSIG
Conditions at: GMMZ (OUARZAZATE , MA) observed 1700 UTC 17 June 2019
Temperature: 36.0°C (97°F)
Dewpoint: -4.0°C (25°F) [RH =  8%]
Pressure (altimeter): 29.94 inches Hg (1014.0 mb)
Winds: from the ENE (70 degrees) at 3 MPH (3 knots; 1.5 m/s)
Visibility: 6 or more miles (10+ km)
Ceiling: ceiling and visibility are OK
Clouds: unknown
Weather: no significant weather observed at this time

METAR text: GMMZ 171600Z 05006KT CAVOK 36/M04 Q1015 NOSIG
Conditions at: GMMZ (OUARZAZATE , MA) observed 1600 UTC 17 June 2019
Temperature: 36.0°C (97°F)
Dewpoint: -4.0°C (25°F) [RH =  8%]
Pressure (altimeter): 29.97 inches Hg (1015.0 mb)
Winds: from the NE (50 degrees) at 7 MPH (6 knots; 3.1 m/s)
Visibility: 6 or more miles (10+ km)
Ceiling: ceiling and visibility are OK
Clouds: unknown
Weather: no significant weather observed at this time

METAR text: GMMZ 171500Z 36005KT CAVOK 35/M03 Q1015 NOSIG
Conditions at: GMMZ (OUARZAZATE , MA) observed 1500 UTC 17 June 2019
Temperature: 35.0°C (95°F)
Dewpoint: -3.0°C (27°F) [RH =  9%]
Pressure (altimeter): 29.97 inches Hg (1015.0 mb)
Winds: from the N (360 degrees) at 6 MPH (5 knots; 2.6 m/s)
Visibility: 6 or more miles (10+ km)
Ceiling: ceiling and visibility are OK
Clouds: unknown
Weather: no significant weather observed at this time

METAR text: GMMZ 171400Z 25005KT CAVOK 35/M03 Q1016 NOSIG
Conditions at: GMMZ (OUARZAZATE , MA) observed 1400 UTC 17 June 2019
Temperature: 35.0°C (95°F)
Dewpoint: -3.0°C (27°F) [RH =  9%]
Pressure (altimeter): 30.00 inches Hg (1016.0 mb)
Winds: from the WSW (250 degrees) at 6 MPH (5 knots; 2.6 m/s)
Visibility: 6 or more miles (10+ km)
Ceiling: ceiling and visibility are OK
Clouds: unknown
Weather: no significant weather observed at this time

METAR text: GMMZ 171300Z 09004KT CAVOK 34/M02 Q1017 NOSIG
Conditions at: GMMZ (OUARZAZATE , MA) observed 1300 UTC 17 June 2019
Temperature: 34.0°C (93°F)
Dewpoint: -2.0°C (28°F) [RH = 10%]
Pressure (altimeter): 30.03 inches Hg (1017.0 mb)
Winds: from the E (90 degrees) at 5 MPH (4 knots; 2.1 m/s)
Visibility: 6 or more miles (10+ km)
Ceiling: ceiling and visibility are OK
Clouds: unknown
Weather: no significant weather observed at this time

METAR text: GMMZ 171200Z 25005KT 210V290 CAVOK 32/00 Q1017 NOSIG
Conditions at: GMMZ (OUARZAZATE , MA) observed 1200 UTC 17 June 2019
Temperature: 32.0°C (90°F)
Dewpoint: 0.0°C (32°F) [RH = 13%]
Pressure (altimeter): 30.03 inches Hg (1017.0 mb)
Winds: from the WSW (250 degrees) at 6 MPH (5 knots; 2.6 m/s)
Visibility: 6 or more miles (10+ km)
Ceiling: ceiling and visibility are OK
Clouds: unknown
Weather: no significant weather observed at this time

METAR text: GMMZ 171100Z 15003KT 210V290 CAVOK 31/01 Q1018 NOSIG
Conditions at: GMMZ (OUARZAZATE , MA) observed 1100 UTC 17 June 2019
Temperature: 31.0°C (88°F)
Dewpoint: 1.0°C (34°F) [RH = 15%]
Pressure (altimeter): 30.06 inches Hg (1018.0 mb)
Winds: from the SSE (150 degrees) at 3 MPH (3 knots; 1.5 m/s)
Visibility: 6 or more miles (10+ km)
Ceiling: ceiling and visibility are OK
Clouds: unknown
Weather: no significant weather observed at this time

METAR text: GMMZ 171000Z 15003KT CAVOK 29/02 Q1018 NOSIG
Conditions at: GMMZ (OUARZAZATE , MA) observed 1000 UTC 17 June 2019
Temperature: 29.0°C (84°F)
Dewpoint: 2.0°C (36°F) [RH = 18%]
Pressure (altimeter): 30.06 inches Hg (1018.0 mb)
Winds: from the SSE (150 degrees) at 3 MPH (3 knots; 1.5 m/s)
Visibility: 6 or more miles (10+ km)
Ceiling: ceiling and visibility are OK
Clouds: unknown
Weather: no significant weather observed at this time

METAR text: GMMZ 170900Z 34004KT 320V040 CAVOK 28/03 Q1018 NOSIG
Conditions at: GMMZ (OUARZAZATE , MA) observed 0900 UTC 17 June 2019
Temperature: 28.0°C (82°F)
Dewpoint: 3.0°C (37°F) [RH = 20%]
Pressure (altimeter): 30.06 inches Hg (1018.0 mb)
Winds: from the NNW (340 degrees) at 5 MPH (4 knots; 2.1 m/s)
Visibility: 6 or more miles (10+ km)
Ceiling: ceiling and visibility are OK
Clouds: unknown
Weather: no significant weather observed at this time

METAR text: GMMZ 170800Z VRB02KT CAVOK 25/02 Q1018 NOSIG
Conditions at: GMMZ (OUARZAZATE , MA) observed 0800 UTC 17 June 2019
Temperature: 25.0°C (77°F)
Dewpoint: 2.0°C (36°F) [RH = 22%]
Pressure (altimeter): 30.06 inches Hg (1018.0 mb)
Winds: variable direction winds at 2 MPH (2 knots; 1.0 m/s)
Visibility: 6 or more miles (10+ km)
Ceiling: ceiling and visibility are OK
Clouds: unknown
Weather: no significant weather observed at this time

Forecast for: GMMZ (OUARZAZATE , MA)
Text: TAF GMMZ 181700Z 1818/1924 22007KT CAVOK
Forecast period: 1800 UTC 18 June 2019 to 0000 UTC 20 June 2019
Forecast type: FROM: standard forecast or significant change
Winds: from the SW (220 degrees) at 8 MPH (7 knots; 3.6 m/s)
Visibility: 6 or more miles 10+ km)
Ceiling: unknown
Clouds: missing
Weather: NSW  (no significant weather)
Text: TEMPO 1917/1919 16015KT
Forecast period: 1700 to 1900 UTC 19 June 2019
Forecast type: TEMPORARY: The following changes expected for less than half the time period
Winds: from the SSE (160 degrees) at 17 MPH (15 knots; 7.7 m/s)
Visibility: missing
Ceiling: unknown
Clouds: missing
Weather: no significant weather forecast for this period